sensor_id;sensor_type;location;lat;lon;timestamp;P1;durP1;ratioP1;P2;durP2;ratioP2
83184;SDS011;73080;48.768;11.528;2023-11-21T00:00:47;12.20;;;3.10;;
83184;SDS011;73080;48.768;11.528;2023-11-21T00:03:13;12.67;;;3.10;;
83184;SDS011;73080;48.768;11.528;2023-11-21T00:05:38;8.87;;;3.17;;
83184;SDS011;73080;48.768;11.528;2023-11-21T00:08:06;7.63;;;2.73;;
83184;SDS011;73080;48.768;11.528;2023-11-21T00:10:32;7.70;;;2.67;;
83184;SDS011;73080;48.768;11.528;2023-11-21T00:12:57;8.55;;;3.63;;
83184;SDS011;73080;48.768;11.528;2023-11-21T00:15:23;8.80;;;3.03;;
83184;SDS011;73080;48.768;11.528;2023-11-21T00:17:48;8.13;;;2.85;;
83184;SDS011;73080;48.768;11.528;2023-11-21T00:20:14;9.82;;;3.05;;
83184;SDS011;73080;48.768;11.528;2023-11-21T00:22:39;9.63;;;3.00;;
83184;SDS011;73080;48.768;11.528;2023-11-21T00:25:04;9.50;;;3.38;;
83184;SDS011;73080;48.768;11.528;2023-11-21T00:27:30;6.78;;;2.85;;
83184;SDS011;73080;48.768;11.528;2023-11-21T00:29:56;10.15;;;3.10;;
83184;SDS011;73080;48.768;11.528;2023-11-21T00:32:21;11.68;;;3.25;;
83184;SDS011;73080;48.768;11.528;2023-11-21T00:34:47;13.75;;;3.35;;
83184;SDS011;73080;48.768;11.528;2023-11-21T00:37:15;6.78;;;3.17;;
83184;SDS011;73080;48.768;11.528;2023-11-21T00:42:06;12.37;;;2.83;;
83184;SDS011;73080;48.768;11.528;2023-11-21T00:44:31;7.93;;;2.90;;
83184;SDS011;73080;48.768;11.528;2023-11-21T00:47:00;6.32;;;2.60;;
83184;SDS011;73080;48.768;11.528;2023-11-21T00:49:25;9.65;;;2.78;;
83184;SDS011;73080;48.768;11.528;2023-11-21T00:51:50;10.32;;;3.00;;
83184;SDS011;73080;48.768;11.528;2023-11-21T00:54:16;8.80;;;3.28;;
83184;SDS011;73080;48.768;11.528;2023-11-21T00:56:41;8.35;;;3.22;;
83184;SDS011;73080;48.768;11.528;2023-11-21T00:59:07;7.50;;;3.30;;
83184;SDS011;73080;48.768;11.528;2023-11-21T01:01:32;9.70;;;3.33;;
83184;SDS011;73080;48.768;11.528;2023-11-21T01:03:58;10.70;;;3.33;;
83184;SDS011;73080;48.768;11.528;2023-11-21T01:06:26;9.95;;;3.53;;
83184;SDS011;73080;48.768;11.528;2023-11-21T01:08:51;8.07;;;3.35;;
83184;SDS011;73080;48.768;11.528;2023-11-21T01:11:20;9.35;;;3.08;;
83184;SDS011;73080;48.768;11.528;2023-11-21T01:13:45;10.27;;;3.33;;
83184;SDS011;73080;48.768;11.528;2023-11-21T01:16:14;9.48;;;3.10;;
83184;SDS011;73080;48.768;11.528;2023-11-21T01:18:42;7.25;;;3.13;;
83184;SDS011;73080;48.768;11.528;2023-11-21T01:21:07;14.40;;;3.45;;
83184;SDS011;73080;48.768;11.528;2023-11-21T01:23:33;12.93;;;3.10;;
83184;SDS011;73080;48.768;11.528;2023-11-21T01:25:58;10.50;;;3.05;;
83184;SDS011;73080;48.768;11.528;2023-11-21T01:28:24;10.85;;;3.38;;
83184;SDS011;73080;48.768;11.528;2023-11-21T01:30:49;7.55;;;2.90;;
83184;SDS011;73080;48.768;11.528;2023-11-21T01:33:14;11.77;;;3.20;;
83184;SDS011;73080;48.768;11.528;2023-11-21T01:35:43;10.38;;;3.40;;
83184;SDS011;73080;48.768;11.528;2023-11-21T01:40:34;9.47;;;3.10;;
83184;SDS011;73080;48.768;11.528;2023-11-21T01:43:00;13.70;;;3.05;;
83184;SDS011;73080;48.768;11.528;2023-11-21T01:45:25;11.90;;;3.25;;
83184;SDS011;73080;48.768;11.528;2023-11-21T01:47:51;10.18;;;3.25;;
83184;SDS011;73080;48.768;11.528;2023-11-21T01:50:17;10.88;;;2.95;;
83184;SDS011;73080;48.768;11.528;2023-11-21T01:52:46;8.32;;;2.97;;
83184;SDS011;73080;48.768;11.528;2023-11-21T01:55:12;9.30;;;3.28;;
83184;SDS011;73080;48.768;11.528;2023-11-21T01:57:40;13.88;;;3.22;;
83184;SDS011;73080;48.768;11.528;2023-11-21T02:00:06;8.75;;;3.38;;
83184;SDS011;73080;48.768;11.528;2023-11-21T02:02:32;9.13;;;3.42;;
83184;SDS011;73080;48.768;11.528;2023-11-21T02:04:57;13.87;;;3.13;;
83184;SDS011;73080;48.768;11.528;2023-11-21T02:07:25;8.60;;;3.30;;
83184;SDS011;73080;48.768;11.528;2023-11-21T02:12:16;9.67;;;2.80;;
83184;SDS011;73080;48.768;11.528;2023-11-21T02:14:41;8.35;;;2.83;;
83184;SDS011;73080;48.768;11.528;2023-11-21T02:17:07;9.57;;;3.50;;
83184;SDS011;73080;48.768;11.528;2023-11-21T02:19:33;13.00;;;3.63;;
83184;SDS011;73080;48.768;11.528;2023-11-21T02:21:59;8.20;;;3.45;;
83184;SDS011;73080;48.768;11.528;2023-11-21T02:24:25;9.43;;;3.20;;
83184;SDS011;73080;48.768;11.528;2023-11-21T02:26:51;12.45;;;3.42;;
83184;SDS011;73080;48.768;11.528;2023-11-21T02:29:20;12.50;;;3.28;;
83184;SDS011;73080;48.768;11.528;2023-11-21T02:31:46;9.05;;;2.78;;
83184;SDS011;73080;48.768;11.528;2023-11-21T02:34:11;10.38;;;3.60;;
83184;SDS011;73080;48.768;11.528;2023-11-21T02:36:37;9.50;;;3.35;;
83184;SDS011;73080;48.768;11.528;2023-11-21T02:39:02;12.02;;;4.47;;
83184;SDS011;73080;48.768;11.528;2023-11-21T02:41:28;12.98;;;4.00;;
83184;SDS011;73080;48.768;11.528;2023-11-21T02:43:57;15.15;;;3.55;;
83184;SDS011;73080;48.768;11.528;2023-11-21T02:46:25;9.20;;;3.92;;
83184;SDS011;73080;48.768;11.528;2023-11-21T02:48:51;9.90;;;4.38;;
83184;SDS011;73080;48.768;11.528;2023-11-21T02:51:16;11.40;;;4.70;;
83184;SDS011;73080;48.768;11.528;2023-11-21T02:53:42;12.10;;;3.97;;
83184;SDS011;73080;48.768;11.528;2023-11-21T02:56:07;12.18;;;3.85;;
83184;SDS011;73080;48.768;11.528;2023-11-21T02:58:36;12.00;;;4.05;;
83184;SDS011;73080;48.768;11.528;2023-11-21T03:03:32;10.67;;;4.90;;
83184;SDS011;73080;48.768;11.528;2023-11-21T03:06:01;10.48;;;4.38;;
83184;SDS011;73080;48.768;11.528;2023-11-21T03:08:26;9.15;;;4.57;;
83184;SDS011;73080;48.768;11.528;2023-11-21T03:10:52;15.52;;;4.43;;
83184;SDS011;73080;48.768;11.528;2023-11-21T03:13:17;13.55;;;4.88;;
83184;SDS011;73080;48.768;11.528;2023-11-21T03:15:42;12.23;;;4.22;;
83184;SDS011;73080;48.768;11.528;2023-11-21T03:18:08;9.55;;;3.88;;
83184;SDS011;73080;48.768;11.528;2023-11-21T03:20:33;8.02;;;3.53;;
83184;SDS011;73080;48.768;11.528;2023-11-21T03:22:59;13.65;;;4.68;;
83184;SDS011;73080;48.768;11.528;2023-11-21T03:25:24;10.73;;;4.82;;
83184;SDS011;73080;48.768;11.528;2023-11-21T03:27:49;9.93;;;4.70;;
83184;SDS011;73080;48.768;11.528;2023-11-21T03:30:15;11.63;;;3.90;;
83184;SDS011;73080;48.768;11.528;2023-11-21T03:32:40;13.23;;;4.82;;
83184;SDS011;73080;48.768;11.528;2023-11-21T03:35:09;9.68;;;4.40;;
83184;SDS011;73080;48.768;11.528;2023-11-21T03:37:34;13.30;;;4.20;;
83184;SDS011;73080;48.768;11.528;2023-11-21T03:40:00;10.32;;;4.05;;
83184;SDS011;73080;48.768;11.528;2023-11-21T03:42:25;9.48;;;4.50;;
83184;SDS011;73080;48.768;11.528;2023-11-21T03:44:51;10.88;;;4.53;;
83184;SDS011;73080;48.768;11.528;2023-11-21T03:47:16;10.85;;;4.35;;
83184;SDS011;73080;48.768;11.528;2023-11-21T03:49:41;12.63;;;4.28;;
83184;SDS011;73080;48.768;11.528;2023-11-21T03:52:07;13.27;;;4.05;;
83184;SDS011;73080;48.768;11.528;2023-11-21T03:54:32;15.77;;;4.47;;
83184;SDS011;73080;48.768;11.528;2023-11-21T03:56:58;10.68;;;3.80;;
83184;SDS011;73080;48.768;11.528;2023-11-21T03:59:26;12.63;;;3.78;;
83184;SDS011;73080;48.768;11.528;2023-11-21T04:01:51;12.27;;;3.90;;
83184;SDS011;73080;48.768;11.528;2023-11-21T04:04:17;10.32;;;3.65;;
83184;SDS011;73080;48.768;11.528;2023-11-21T04:06:42;8.55;;;4.13;;
83184;SDS011;73080;48.768;11.528;2023-11-21T04:09:08;9.63;;;4.45;;
83184;SDS011;73080;48.768;11.528;2023-11-21T04:11:33;11.95;;;4.20;;
83184;SDS011;73080;48.768;11.528;2023-11-21T04:13:59;12.27;;;4.05;;
83184;SDS011;73080;48.768;11.528;2023-11-21T04:16:24;10.18;;;4.20;;
83184;SDS011;73080;48.768;11.528;2023-11-21T04:18:50;10.20;;;3.45;;
83184;SDS011;73080;48.768;11.528;2023-11-21T04:21:15;10.90;;;4.20;;
83184;SDS011;73080;48.768;11.528;2023-11-21T04:23:41;10.60;;;4.95;;
83184;SDS011;73080;48.768;11.528;2023-11-21T04:26:07;15.07;;;4.32;;
83184;SDS011;73080;48.768;11.528;2023-11-21T04:28:32;15.38;;;4.82;;
83184;SDS011;73080;48.768;11.528;2023-11-21T04:30:58;11.48;;;4.85;;
83184;SDS011;73080;48.768;11.528;2023-11-21T04:33:23;13.07;;;4.40;;
83184;SDS011;73080;48.768;11.528;2023-11-21T04:35:52;13.75;;;5.15;;
83184;SDS011;73080;48.768;11.528;2023-11-21T04:38:17;10.55;;;4.72;;
83184;SDS011;73080;48.768;11.528;2023-11-21T04:40:43;9.13;;;4.68;;
83184;SDS011;73080;48.768;11.528;2023-11-21T04:43:09;11.23;;;4.50;;
83184;SDS011;73080;48.768;11.528;2023-11-21T04:45:34;12.80;;;4.55;;
83184;SDS011;73080;48.768;11.528;2023-11-21T04:47:59;13.35;;;4.93;;
83184;SDS011;73080;48.768;11.528;2023-11-21T04:50:25;12.27;;;4.60;;
83184;SDS011;73080;48.768;11.528;2023-11-21T04:52:50;9.50;;;4.13;;
83184;SDS011;73080;48.768;11.528;2023-11-21T04:55:16;11.02;;;4.75;;
83184;SDS011;73080;48.768;11.528;2023-11-21T04:57:41;10.75;;;4.40;;
83184;SDS011;73080;48.768;11.528;2023-11-21T05:00:08;13.45;;;4.55;;
83184;SDS011;73080;48.768;11.528;2023-11-21T05:02:34;13.55;;;4.97;;
83184;SDS011;73080;48.768;11.528;2023-11-21T05:05:00;10.63;;;4.78;;
83184;SDS011;73080;48.768;11.528;2023-11-21T05:07:26;9.60;;;3.83;;
83184;SDS011;73080;48.768;11.528;2023-11-21T05:09:51;10.15;;;4.13;;
83184;SDS011;73080;48.768;11.528;2023-11-21T05:12:16;10.80;;;4.28;;
83184;SDS011;73080;48.768;11.528;2023-11-21T05:14:42;15.95;;;5.53;;
83184;SDS011;73080;48.768;11.528;2023-11-21T05:17:07;14.52;;;5.10;;
83184;SDS011;73080;48.768;11.528;2023-11-21T05:19:33;14.75;;;5.53;;
83184;SDS011;73080;48.768;11.528;2023-11-21T05:21:59;12.85;;;4.90;;
83184;SDS011;73080;48.768;11.528;2023-11-21T05:24:27;11.10;;;4.57;;
83184;SDS011;73080;48.768;11.528;2023-11-21T05:26:52;10.50;;;4.43;;
83184;SDS011;73080;48.768;11.528;2023-11-21T05:29:18;13.32;;;4.78;;
83184;SDS011;73080;48.768;11.528;2023-11-21T05:31:43;10.23;;;4.78;;
83184;SDS011;73080;48.768;11.528;2023-11-21T05:34:09;12.85;;;6.18;;
83184;SDS011;73080;48.768;11.528;2023-11-21T05:36:34;12.85;;;5.40;;
83184;SDS011;73080;48.768;11.528;2023-11-21T05:39:00;13.23;;;5.05;;
83184;SDS011;73080;48.768;11.528;2023-11-21T05:41:25;14.43;;;5.20;;
83184;SDS011;73080;48.768;11.528;2023-11-21T05:43:50;14.57;;;4.95;;
83184;SDS011;73080;48.768;11.528;2023-11-21T05:46:16;10.82;;;5.97;;
83184;SDS011;73080;48.768;11.528;2023-11-21T05:48:41;15.98;;;5.95;;
83184;SDS011;73080;48.768;11.528;2023-11-21T05:51:07;17.73;;;5.70;;
83184;SDS011;73080;48.768;11.528;2023-11-21T05:53:33;14.25;;;6.05;;
83184;SDS011;73080;48.768;11.528;2023-11-21T05:55:58;11.65;;;4.88;;
83184;SDS011;73080;48.768;11.528;2023-11-21T05:58:26;13.63;;;5.18;;
83184;SDS011;73080;48.768;11.528;2023-11-21T06:00:52;11.35;;;5.38;;
83184;SDS011;73080;48.768;11.528;2023-11-21T06:03:17;12.45;;;5.40;;
83184;SDS011;73080;48.768;11.528;2023-11-21T06:05:42;13.05;;;5.68;;
83184;SDS011;73080;48.768;11.528;2023-11-21T06:08:08;14.68;;;5.78;;
83184;SDS011;73080;48.768;11.528;2023-11-21T06:10:33;14.05;;;5.25;;
83184;SDS011;73080;48.768;11.528;2023-11-21T06:13:02;12.88;;;4.75;;
83184;SDS011;73080;48.768;11.528;2023-11-21T06:15:27;12.60;;;5.47;;
83184;SDS011;73080;48.768;11.528;2023-11-21T06:17:52;12.20;;;5.68;;
83184;SDS011;73080;48.768;11.528;2023-11-21T06:20:18;12.52;;;4.40;;
83184;SDS011;73080;48.768;11.528;2023-11-21T06:22:46;12.30;;;5.15;;
83184;SDS011;73080;48.768;11.528;2023-11-21T06:25:13;12.77;;;5.10;;
83184;SDS011;73080;48.768;11.528;2023-11-21T06:27:45;12.55;;;4.90;;
83184;SDS011;73080;48.768;11.528;2023-11-21T06:30:12;13.02;;;5.13;;
83184;SDS011;73080;48.768;11.528;2023-11-21T06:32:38;15.40;;;4.80;;
83184;SDS011;73080;48.768;11.528;2023-11-21T06:35:04;11.55;;;5.03;;
83184;SDS011;73080;48.768;11.528;2023-11-21T06:37:31;14.98;;;6.05;;
83184;SDS011;73080;48.768;11.528;2023-11-21T06:39:57;12.52;;;6.03;;
83184;SDS011;73080;48.768;11.528;2023-11-21T06:42:24;12.70;;;4.90;;
83184;SDS011;73080;48.768;11.528;2023-11-21T06:44:50;15.55;;;5.63;;
83184;SDS011;73080;48.768;11.528;2023-11-21T06:47:18;17.70;;;5.28;;
83184;SDS011;73080;48.768;11.528;2023-11-21T06:49:44;11.13;;;5.60;;
83184;SDS011;73080;48.768;11.528;2023-11-21T06:52:09;16.30;;;5.60;;
83184;SDS011;73080;48.768;11.528;2023-11-21T06:54:35;13.60;;;5.93;;
83184;SDS011;73080;48.768;11.528;2023-11-21T06:57:02;11.70;;;5.57;;
83184;SDS011;73080;48.768;11.528;2023-11-21T06:59:30;13.38;;;5.25;;
83184;SDS011;73080;48.768;11.528;2023-11-21T07:01:56;13.50;;;5.20;;
83184;SDS011;73080;48.768;11.528;2023-11-21T07:04:22;17.45;;;5.00;;
83184;SDS011;73080;48.768;11.528;2023-11-21T07:06:47;11.32;;;4.03;;
83184;SDS011;73080;48.768;11.528;2023-11-21T07:09:12;12.30;;;4.07;;
83184;SDS011;73080;48.768;11.528;2023-11-21T07:11:38;12.23;;;4.80;;
83184;SDS011;73080;48.768;11.528;2023-11-21T07:14:03;10.30;;;4.07;;
83184;SDS011;73080;48.768;11.528;2023-11-21T07:16:29;11.65;;;4.75;;
83184;SDS011;73080;48.768;11.528;2023-11-21T07:18:54;10.03;;;4.53;;
83184;SDS011;73080;48.768;11.528;2023-11-21T07:21:20;14.27;;;4.70;;
83184;SDS011;73080;48.768;11.528;2023-11-21T07:23:53;10.13;;;4.22;;
83184;SDS011;73080;48.768;11.528;2023-11-21T07:26:21;9.57;;;3.50;;
83184;SDS011;73080;48.768;11.528;2023-11-21T07:28:46;8.50;;;3.40;;
83184;SDS011;73080;48.768;11.528;2023-11-21T07:34:09;6.80;;;3.13;;
83184;SDS011;73080;48.768;11.528;2023-11-21T07:36:35;10.63;;;3.60;;
83184;SDS011;73080;48.768;11.528;2023-11-21T07:39:01;11.88;;;3.33;;
83184;SDS011;73080;48.768;11.528;2023-11-21T07:41:26;8.75;;;3.65;;
83184;SDS011;73080;48.768;11.528;2023-11-21T07:43:51;14.35;;;4.22;;
83184;SDS011;73080;48.768;11.528;2023-11-21T07:46:17;9.82;;;3.55;;
83184;SDS011;73080;48.768;11.528;2023-11-21T07:48:42;10.52;;;4.13;;
83184;SDS011;73080;48.768;11.528;2023-11-21T07:51:08;11.85;;;3.72;;
83184;SDS011;73080;48.768;11.528;2023-11-21T07:53:35;10.45;;;3.72;;
83184;SDS011;73080;48.768;11.528;2023-11-21T07:56:09;10.63;;;4.22;;
83184;SDS011;73080;48.768;11.528;2023-11-21T07:58:38;15.70;;;4.50;;
83184;SDS011;73080;48.768;11.528;2023-11-21T08:01:07;8.05;;;3.67;;
83184;SDS011;73080;48.768;11.528;2023-11-21T08:03:32;8.45;;;3.17;;
83184;SDS011;73080;48.768;11.528;2023-11-21T08:06:00;9.10;;;3.28;;
83184;SDS011;73080;48.768;11.528;2023-11-21T08:08:29;8.82;;;3.53;;
83184;SDS011;73080;48.768;11.528;2023-11-21T08:10:58;10.65;;;3.75;;
83184;SDS011;73080;48.768;11.528;2023-11-21T08:13:24;13.88;;;4.53;;
83184;SDS011;73080;48.768;11.528;2023-11-21T08:15:50;9.07;;;3.53;;
83184;SDS011;73080;48.768;11.528;2023-11-21T08:18:18;8.35;;;3.35;;
83184;SDS011;73080;48.768;11.528;2023-11-21T08:20:44;11.43;;;3.50;;
83184;SDS011;73080;48.768;11.528;2023-11-21T08:23:09;11.05;;;3.47;;
83184;SDS011;73080;48.768;11.528;2023-11-21T08:25:35;8.90;;;3.28;;
83184;SDS011;73080;48.768;11.528;2023-11-21T08:28:00;9.65;;;3.22;;
83184;SDS011;73080;48.768;11.528;2023-11-21T08:30:26;12.35;;;3.28;;
83184;SDS011;73080;48.768;11.528;2023-11-21T08:32:51;10.13;;;3.72;;
83184;SDS011;73080;48.768;11.528;2023-11-21T08:35:16;14.38;;;3.97;;
83184;SDS011;73080;48.768;11.528;2023-11-21T08:37:45;7.00;;;3.42;;
83184;SDS011;73080;48.768;11.528;2023-11-21T08:40:11;7.88;;;3.42;;
83184;SDS011;73080;48.768;11.528;2023-11-21T08:42:37;9.90;;;3.40;;
83184;SDS011;73080;48.768;11.528;2023-11-21T08:45:02;7.45;;;2.90;;
83184;SDS011;73080;48.768;11.528;2023-11-21T08:47:28;21.35;;;7.95;;
83184;SDS011;73080;48.768;11.528;2023-11-21T08:49:53;8.13;;;3.53;;
83184;SDS011;73080;48.768;11.528;2023-11-21T08:52:19;10.05;;;3.63;;
83184;SDS011;73080;48.768;11.528;2023-11-21T08:54:44;8.48;;;2.53;;
83184;SDS011;73080;48.768;11.528;2023-11-21T08:57:10;9.80;;;2.92;;
83184;SDS011;73080;48.768;11.528;2023-11-21T08:59:35;6.32;;;2.72;;
83184;SDS011;73080;48.768;11.528;2023-11-21T09:02:07;9.80;;;2.92;;
83184;SDS011;73080;48.768;11.528;2023-11-21T09:04:35;8.93;;;3.13;;
83184;SDS011;73080;48.768;11.528;2023-11-21T09:07:00;7.03;;;3.13;;
83184;SDS011;73080;48.768;11.528;2023-11-21T09:09:26;11.35;;;3.42;;
83184;SDS011;73080;48.768;11.528;2023-11-21T09:11:51;11.48;;;3.25;;
83184;SDS011;73080;48.768;11.528;2023-11-21T09:14:19;8.73;;;2.88;;
83184;SDS011;73080;48.768;11.528;2023-11-21T09:16:44;6.82;;;2.55;;
83184;SDS011;73080;48.768;11.528;2023-11-21T09:19:10;9.65;;;2.95;;
83184;SDS011;73080;48.768;11.528;2023-11-21T09:21:35;9.60;;;3.45;;
83184;SDS011;73080;48.768;11.528;2023-11-21T09:24:04;8.40;;;3.38;;
83184;SDS011;73080;48.768;11.528;2023-11-21T09:26:29;9.55;;;3.75;;
83184;SDS011;73080;48.768;11.528;2023-11-21T09:28:55;7.63;;;3.55;;
83184;SDS011;73080;48.768;11.528;2023-11-21T09:31:20;10.52;;;4.20;;
83184;SDS011;73080;48.768;11.528;2023-11-21T09:33:46;12.82;;;5.75;;
83184;SDS011;73080;48.768;11.528;2023-11-21T09:36:17;11.52;;;5.70;;
83184;SDS011;73080;48.768;11.528;2023-11-21T09:38:42;16.30;;;5.72;;
83184;SDS011;73080;48.768;11.528;2023-11-21T09:41:21;21.55;;;7.72;;
83184;SDS011;73080;48.768;11.528;2023-11-21T09:44:01;17.33;;;7.82;;
83184;SDS011;73080;48.768;11.528;2023-11-21T09:46:29;11.98;;;5.20;;
83184;SDS011;73080;48.768;11.528;2023-11-21T09:48:55;12.48;;;6.18;;
83184;SDS011;73080;48.768;11.528;2023-11-21T09:51:25;11.68;;;6.25;;
83184;SDS011;73080;48.768;11.528;2023-11-21T09:53:52;11.60;;;6.80;;
83184;SDS011;73080;48.768;11.528;2023-11-21T09:56:21;10.43;;;6.13;;
83184;SDS011;73080;48.768;11.528;2023-11-21T09:58:46;13.35;;;6.18;;
83184;SDS011;73080;48.768;11.528;2023-11-21T10:01:15;13.48;;;6.55;;
83184;SDS011;73080;48.768;11.528;2023-11-21T10:03:45;11.43;;;5.97;;
83184;SDS011;73080;48.768;11.528;2023-11-21T10:06:10;11.48;;;6.18;;
83184;SDS011;73080;48.768;11.528;2023-11-21T10:08:38;10.88;;;5.18;;
83184;SDS011;73080;48.768;11.528;2023-11-21T10:11:04;12.43;;;5.50;;
83184;SDS011;73080;48.768;11.528;2023-11-21T10:13:31;12.00;;;5.72;;
83184;SDS011;73080;48.768;11.528;2023-11-21T10:16:03;12.65;;;5.78;;
83184;SDS011;73080;48.768;11.528;2023-11-21T10:18:30;14.05;;;6.85;;
83184;SDS011;73080;48.768;11.528;2023-11-21T10:20:58;14.27;;;6.63;;
83184;SDS011;73080;48.768;11.528;2023-11-21T10:23:23;14.20;;;6.75;;
83184;SDS011;73080;48.768;11.528;2023-11-21T10:25:49;13.13;;;6.43;;
83184;SDS011;73080;48.768;11.528;2023-11-21T10:28:15;13.75;;;6.88;;
83184;SDS011;73080;48.768;11.528;2023-11-21T10:30:41;16.13;;;7.25;;
83184;SDS011;73080;48.768;11.528;2023-11-21T10:33:06;12.38;;;6.68;;
83184;SDS011;73080;48.768;11.528;2023-11-21T10:35:39;14.85;;;6.57;;
83184;SDS011;73080;48.768;11.528;2023-11-21T10:38:12;14.77;;;7.38;;
83184;SDS011;73080;48.768;11.528;2023-11-21T10:40:38;13.05;;;7.03;;
83184;SDS011;73080;48.768;11.528;2023-11-21T10:43:10;16.10;;;7.28;;
83184;SDS011;73080;48.768;11.528;2023-11-21T10:45:39;15.98;;;7.50;;
83184;SDS011;73080;48.768;11.528;2023-11-21T10:48:23;10.55;;;5.53;;
83184;SDS011;73080;48.768;11.528;2023-11-21T10:50:48;14.13;;;5.82;;
83184;SDS011;73080;48.768;11.528;2023-11-21T10:53:14;11.25;;;5.85;;
83184;SDS011;73080;48.768;11.528;2023-11-21T10:55:39;10.55;;;5.53;;
83184;SDS011;73080;48.768;11.528;2023-11-21T10:58:05;9.68;;;5.45;;
83184;SDS011;73080;48.768;11.528;2023-11-21T11:00:32;11.10;;;5.32;;
83184;SDS011;73080;48.768;11.528;2023-11-21T11:02:58;11.43;;;6.22;;
83184;SDS011;73080;48.768;11.528;2023-11-21T11:05:25;13.32;;;5.68;;
83184;SDS011;73080;48.768;11.528;2023-11-21T11:07:58;12.70;;;6.60;;
83184;SDS011;73080;48.768;11.528;2023-11-21T11:10:28;12.60;;;6.82;;
83184;SDS011;73080;48.768;11.528;2023-11-21T11:12:54;10.70;;;6.88;;
83184;SDS011;73080;48.768;11.528;2023-11-21T11:15:19;14.95;;;6.85;;
83184;SDS011;73080;48.768;11.528;2023-11-21T11:17:45;11.52;;;4.95;;
83184;SDS011;73080;48.768;11.528;2023-11-21T11:20:12;10.23;;;5.43;;
83184;SDS011;73080;48.768;11.528;2023-11-21T11:28:35;10.40;;;4.97;;
83184;SDS011;73080;48.768;11.528;2023-11-21T11:34:01;8.55;;;4.47;;
83184;SDS011;73080;48.768;11.528;2023-11-21T11:36:43;10.15;;;5.10;;
83184;SDS011;73080;48.768;11.528;2023-11-21T11:42:08;6.25;;;3.25;;
83184;SDS011;73080;48.768;11.528;2023-11-21T11:47:12;6.88;;;3.45;;
83184;SDS011;73080;48.768;11.528;2023-11-21T11:52:42;9.90;;;3.88;;
83184;SDS011;73080;48.768;11.528;2023-11-21T11:55:19;6.50;;;3.13;;
83184;SDS011;73080;48.768;11.528;2023-11-21T11:57:49;9.05;;;3.50;;
83184;SDS011;73080;48.768;11.528;2023-11-21T12:00:20;6.70;;;3.33;;
83184;SDS011;73080;48.768;11.528;2023-11-21T12:02:53;7.28;;;3.05;;
83184;SDS011;73080;48.768;11.528;2023-11-21T12:05:23;5.90;;;3.10;;
83184;SDS011;73080;48.768;11.528;2023-11-21T12:10:21;8.50;;;3.42;;
83184;SDS011;73080;48.768;11.528;2023-11-21T12:12:48;8.13;;;3.53;;
83184;SDS011;73080;48.768;11.528;2023-11-21T12:15:15;6.15;;;3.95;;
83184;SDS011;73080;48.768;11.528;2023-11-21T12:17:41;7.10;;;3.22;;
83184;SDS011;73080;48.768;11.528;2023-11-21T12:20:08;7.90;;;3.22;;
83184;SDS011;73080;48.768;11.528;2023-11-21T12:22:37;7.70;;;5.45;;
83184;SDS011;73080;48.768;11.528;2023-11-21T12:25:02;6.75;;;3.17;;
83184;SDS011;73080;48.768;11.528;2023-11-21T12:27:28;8.00;;;3.28;;
83184;SDS011;73080;48.768;11.528;2023-11-21T12:29:54;5.97;;;2.80;;
83184;SDS011;73080;48.768;11.528;2023-11-21T12:32:19;6.35;;;2.53;;
83184;SDS011;73080;48.768;11.528;2023-11-21T12:34:45;9.30;;;2.50;;
83184;SDS011;73080;48.768;11.528;2023-11-21T12:37:10;5.82;;;2.45;;
83184;SDS011;73080;48.768;11.528;2023-11-21T12:39:36;5.63;;;2.13;;
83184;SDS011;73080;48.768;11.528;2023-11-21T12:42:01;4.88;;;1.85;;
83184;SDS011;73080;48.768;11.528;2023-11-21T12:44:27;4.30;;;1.73;;
83184;SDS011;73080;48.768;11.528;2023-11-21T12:46:53;4.03;;;1.77;;
83184;SDS011;73080;48.768;11.528;2023-11-21T12:49:18;4.30;;;1.73;;
83184;SDS011;73080;48.768;11.528;2023-11-21T12:51:45;5.18;;;1.58;;
83184;SDS011;73080;48.768;11.528;2023-11-21T12:54:11;4.68;;;2.20;;
83184;SDS011;73080;48.768;11.528;2023-11-21T12:56:40;5.88;;;1.80;;
83184;SDS011;73080;48.768;11.528;2023-11-21T12:59:06;6.13;;;1.63;;
83184;SDS011;73080;48.768;11.528;2023-11-21T13:01:34;5.43;;;1.90;;
83184;SDS011;73080;48.768;11.528;2023-11-21T13:04:00;5.03;;;1.85;;
83184;SDS011;73080;48.768;11.528;2023-11-21T13:06:25;3.97;;;1.50;;
83184;SDS011;73080;48.768;11.528;2023-11-21T13:08:50;3.97;;;1.40;;
83184;SDS011;73080;48.768;11.528;2023-11-21T13:11:16;4.20;;;1.40;;
83184;SDS011;73080;48.768;11.528;2023-11-21T13:13:42;3.20;;;1.10;;
83184;SDS011;73080;48.768;11.528;2023-11-21T13:16:11;3.83;;;1.15;;
83184;SDS011;73080;48.768;11.528;2023-11-21T13:18:39;4.13;;;1.20;;
83184;SDS011;73080;48.768;11.528;2023-11-21T13:21:05;3.30;;;1.40;;
83184;SDS011;73080;48.768;11.528;2023-11-21T13:23:34;4.32;;;1.70;;
83184;SDS011;73080;48.768;11.528;2023-11-21T13:26:00;4.88;;;1.65;;
83184;SDS011;73080;48.768;11.528;2023-11-21T13:28:25;5.00;;;1.20;;
83184;SDS011;73080;48.768;11.528;2023-11-21T13:30:54;3.75;;;1.20;;
83184;SDS011;73080;48.768;11.528;2023-11-21T13:33:19;4.43;;;1.60;;
83184;SDS011;73080;48.768;11.528;2023-11-21T13:35:45;3.50;;;1.30;;
83184;SDS011;73080;48.768;11.528;2023-11-21T13:38:11;2.90;;;1.10;;
83184;SDS011;73080;48.768;11.528;2023-11-21T13:40:40;4.13;;;1.38;;
83184;SDS011;73080;48.768;11.528;2023-11-21T13:43:09;4.10;;;1.20;;
83184;SDS011;73080;48.768;11.528;2023-11-21T13:45:36;4.45;;;1.13;;
83184;SDS011;73080;48.768;11.528;2023-11-21T13:48:05;3.08;;;1.13;;
83184;SDS011;73080;48.768;11.528;2023-11-21T13:50:31;3.22;;;1.00;;
83184;SDS011;73080;48.768;11.528;2023-11-21T13:53:03;3.58;;;0.90;;
83184;SDS011;73080;48.768;11.528;2023-11-21T13:55:31;3.97;;;1.08;;
83184;SDS011;73080;48.768;11.528;2023-11-21T13:57:57;3.83;;;1.55;;
83184;SDS011;73080;48.768;11.528;2023-11-21T14:00:22;2.50;;;0.82;;
83184;SDS011;73080;48.768;11.528;2023-11-21T14:02:47;2.95;;;1.15;;
83184;SDS011;73080;48.768;11.528;2023-11-21T14:05:13;2.67;;;1.00;;
83184;SDS011;73080;48.768;11.528;2023-11-21T14:07:41;3.17;;;1.00;;
83184;SDS011;73080;48.768;11.528;2023-11-21T14:10:07;3.13;;;0.80;;
83184;SDS011;73080;48.768;11.528;2023-11-21T14:12:32;6.25;;;1.40;;
83184;SDS011;73080;48.768;11.528;2023-11-21T14:14:57;5.27;;;1.53;;
83184;SDS011;73080;48.768;11.528;2023-11-21T14:17:23;3.30;;;0.90;;
83184;SDS011;73080;48.768;11.528;2023-11-21T14:19:51;3.65;;;1.40;;
83184;SDS011;73080;48.768;11.528;2023-11-21T14:22:17;4.68;;;1.35;;
83184;SDS011;73080;48.768;11.528;2023-11-21T14:24:42;3.20;;;0.90;;
83184;SDS011;73080;48.768;11.528;2023-11-21T14:27:07;3.73;;;1.30;;
83184;SDS011;73080;48.768;11.528;2023-11-21T14:29:32;6.87;;;1.70;;
83184;SDS011;73080;48.768;11.528;2023-11-21T14:31:58;3.17;;;0.90;;
83184;SDS011;73080;48.768;11.528;2023-11-21T14:34:23;3.10;;;1.17;;
83184;SDS011;73080;48.768;11.528;2023-11-21T14:36:52;3.25;;;1.02;;
83184;SDS011;73080;48.768;11.528;2023-11-21T14:39:17;3.20;;;1.05;;
83184;SDS011;73080;48.768;11.528;2023-11-21T14:41:42;3.67;;;1.27;;
83184;SDS011;73080;48.768;11.528;2023-11-21T14:44:08;3.80;;;1.10;;
83184;SDS011;73080;48.768;11.528;2023-11-21T14:46:33;4.20;;;1.20;;
83184;SDS011;73080;48.768;11.528;2023-11-21T14:49:01;3.43;;;1.00;;
83184;SDS011;73080;48.768;11.528;2023-11-21T14:51:28;3.47;;;1.38;;
83184;SDS011;73080;48.768;11.528;2023-11-21T14:53:53;3.38;;;0.90;;
83184;SDS011;73080;48.768;11.528;2023-11-21T14:56:26;2.90;;;0.88;;